Terminal Aerodrome Forecast
Issued by NWS

Home | Current Version | Previous Version | Text Only | Print | Product List | Glossary On
Versions: 1 2 3 4 5 6 7 8 9 10 11 12 13 14 15 16
002
FTUS43 KDVN 201158 AAA
TAFCID
TAF AMD
KCID 201158Z 2012/2112 VRB03KT 6SM BR BKN120
      TEMPO 2012/2013 4SM TSRA BKN050CB
     FM201300 04006KT P6SM SCT025 BKN040
     FM201500 24006KT P6SM SCT100 SCT250 PROB30 2021/2101 4SM TSRA
      BKN040CB
     FM210100 06008KT P6SM BKN120=

USA.gov is the U.S. government's official web portal to all federal, state and local government web resources and services.